Time;durP1;ratioP1;P1;durP2;ratioP2;P2;SDS_P1;SDS_P2;PMS_P1;PMS_P2;Temp;Humidity;BMP_temperature;BMP_pressure;BME280_temperature;BME280_humidity;BME280_pressure;Samples;Min_cycle;Max_cycle;Signal;HPM_P1;HPM_P2
2023/05/13 00:01:52;;;;;;;;;;;;;;;15.02;100.00;101962.31;5094164;28;19919;-69
2023/05/13 00:04:17;;;;;;;;;;;;;;;15.03;100.00;101964.03;5093388;28;19968;-69
2023/05/13 00:06:42;;;;;;;;;;;;;;;15.03;100.00;101961.34;5095616;28;20270;-69
2023/05/13 00:09:08;;;;;;;;;;;;;;;15.03;100.00;101964.84;5100737;28;20312;-69
2023/05/13 00:11:34;;;;;;;;;;;;;;;15.04;100.00;101961.19;5091693;28;19908;-69
2023/05/13 00:13:59;;;;;;;;;;;;;;;15.04;100.00;101961.19;5094125;28;19912;-69
2023/05/13 00:16:26;;;;;;;;;;;;;;;15.04;100.00;101952.25;5094054;28;19923;-69
2023/05/13 00:18:51;;;;;;;;;;;;;;;15.03;100.00;101962.16;5094973;28;20304;-69
2023/05/13 00:21:16;;;;;;;;;;;;;;;15.02;100.00;101952.41;5093586;28;19915;-69
2023/05/13 00:23:42;;;;;;;;;;;;;;;15.01;100.00;101961.47;5093858;28;20218;-69
2023/05/13 00:26:07;;;;;;;;;;;;;;;14.99;100.00;101952.72;5096899;28;19940;-69
2023/05/13 00:28:32;;;;;;;;;;;;;;;14.98;100.00;101959.06;5093615;28;19922;-69
2023/05/13 00:30:57;;;;;;;;;;;;;;;14.97;100.00;101959.22;5093726;28;19954;-69
2023/05/13 00:33:22;;;;;;;;;;;;;;;14.94;100.00;101952.31;5094549;28;19915;-69
2023/05/13 00:35:47;;;;;;;;;;;;;;;14.92;100.00;101955.13;5095218;28;19934;-69
2023/05/13 00:38:13;;;;;;;;;;;;;;;14.90;100.00;101954.44;5093993;28;19947;-69
2023/05/13 00:40:38;;;;;;;;;;;;;;;14.88;100.00;101956.41;5093112;28;20292;-69
2023/05/13 00:43:03;;;;;;;;;;;;;;;14.84;100.00;101955.00;5096070;28;19923;-69
2023/05/13 00:45:29;;;;;;;;;;;;;;;14.82;100.00;101953.44;5094485;28;20281;-69
2023/05/13 00:47:54;;;;;;;;;;;;;;;14.81;100.00;101954.44;5093177;28;19922;-69
2023/05/13 00:50:19;;;;;;;;;;;;;;;14.79;100.00;101959.94;5095212;28;19915;-69
2023/05/13 00:52:45;;;;;;;;;;;;;;;14.77;100.00;101961.94;5092885;28;19989;-70
2023/05/13 00:55:10;;;;;;;;;;;;;;;14.74;100.00;101957.69;5094838;28;20639;-69
2023/05/13 00:57:36;;;;;;;;;;;;;;;14.74;100.00;101959.50;5091323;28;19923;-70
2023/05/13 01:00:02;;;;;;;;;;;;;;;14.72;100.00;101962.34;5094070;28;20011;-69
2023/05/13 01:02:34;;;;;;;;;;;;;;;14.68;100.00;101960.94;5094277;28;19915;-70
2023/05/13 01:05:08;;;;;;;;;;;;;;;14.68;100.00;101960.09;5094127;28;19916;-69
2023/05/13 01:07:52;;;;;;;;;;;;;;;14.64;100.00;101967.59;5092014;28;19942;-70
2023/05/13 01:10:56;;;;;;;;;;;;;;;14.62;100.00;101958.84;5092486;28;19973;-69
2023/05/13 01:13:26;;;;;;;;;;;;;;;14.59;100.00;101960.97;5051775;28;19916;-69
2023/05/13 01:16:02;;;;;;;;;;;;;;;14.58;100.00;101957.41;5052631;28;19923;-69
2023/05/13 01:18:30;;;;;;;;;;;;;;;14.54;100.00;101961.34;5072952;28;20015;-69
2023/05/13 01:20:57;;;;;;;;;;;;;;;14.49;100.00;101953.69;5093666;28;20369;-69
2023/05/13 01:23:22;;;;;;;;;;;;;;;14.48;100.00;101956.53;5092937;28;19916;-69
2023/05/13 01:25:49;;;;;;;;;;;;;;;14.45;100.00;101949.63;5094127;28;19919;-69
2023/05/13 01:28:14;;;;;;;;;;;;;;;14.44;100.00;101961.31;5094697;28;20281;-70
2023/05/13 01:30:40;;;;;;;;;;;;;;;14.40;100.00;101951.88;5091932;28;19916;-69
2023/05/13 01:33:05;;;;;;;;;;;;;;;14.36;100.00;101962.03;5094371;28;19916;-69
2023/05/13 01:35:31;;;;;;;;;;;;;;;14.33;100.00;101956.09;5093077;28;19915;-69
2023/05/13 01:37:56;;;;;;;;;;;;;;;14.29;100.00;101952.84;5092069;28;19918;-69
2023/05/13 01:40:22;;;;;;;;;;;;;;;14.26;100.00;101958.50;5091415;28;20292;-69
2023/05/13 01:42:47;;;;;;;;;;;;;;;14.22;100.00;101953.53;5098243;27;19915;-69
2023/05/13 01:45:13;;;;;;;;;;;;;;;14.17;100.00;101952.13;5098064;28;20308;-69
2023/05/13 01:47:38;;;;;;;;;;;;;;;14.12;100.00;101957.06;5095937;28;20014;-69
2023/05/13 01:50:03;;;;;;;;;;;;;;;14.10;100.00;101958.19;5097013;28;19919;-68
2023/05/13 01:52:28;;;;;;;;;;;;;;;14.07;100.00;101956.63;5097267;28;19951;-69
2023/05/13 01:54:53;;;;;;;;;;;;;;;14.04;100.00;101956.06;5098422;27;20138;-69
2023/05/13 01:57:19;;;;;;;;;;;;;;;14.01;100.00;101959.88;5097410;27;19912;-69
2023/05/13 01:59:44;;;;;;;;;;;;;;;13.97;100.00;101959.31;5096167;28;19926;-69
2023/05/13 02:02:09;;;;;;;;;;;;;;;13.94;100.00;101962.25;5098398;28;19911;-69
2023/05/13 02:04:34;;;;;;;;;;;;;;;13.93;100.00;101959.69;5095714;27;19915;-69
2023/05/13 02:06:59;;;;;;;;;;;;;;;13.90;100.00;101960.84;5098053;28;19915;-69
2023/05/13 02:09:24;;;;;;;;;;;;;;;13.88;100.00;101960.09;5095145;28;19922;-69
2023/05/13 02:11:50;;;;;;;;;;;;;;;13.86;100.00;101956.72;5097558;28;20372;-69
2023/05/13 02:14:15;;;;;;;;;;;;;;;13.83;100.00;101965.03;5095432;28;20389;-69
2023/05/13 02:16:41;;;;;;;;;;;;;;;13.82;100.00;101963.34;5096946;27;20433;-69
2023/05/13 02:19:06;;;;;;;;;;;;;;;13.80;100.00;101958.13;5097504;28;19923;-69
2023/05/13 02:21:31;;;;;;;;;;;;;;;13.78;100.00;101959.25;5097081;28;19915;-69
2023/05/13 02:23:56;;;;;;;;;;;;;;;13.74;100.00;101958.66;5096509;27;19911;-69
2023/05/13 02:26:22;;;;;;;;;;;;;;;13.71;100.00;101958.06;5097900;28;19969;-68
2023/05/13 02:28:47;;;;;;;;;;;;;;;13.68;100.00;101964.56;5097278;28;19919;-69
2023/05/13 02:31:12;;;;;;;;;;;;;;;13.66;100.00;101966.53;5096213;27;19907;-69
2023/05/13 02:33:37;;;;;;;;;;;;;;;13.63;100.00;101966.81;5094541;28;20036;-69
2023/05/13 02:36:03;;;;;;;;;;;;;;;13.61;100.00;101960.72;5096349;28;21302;-68
2023/05/13 02:38:28;;;;;;;;;;;;;;;13.59;100.00;101971.59;5094694;28;20444;-68
2023/05/13 02:40:53;;;;;;;;;;;;;;;13.57;100.00;101959.31;5097246;27;19911;-68
2023/05/13 02:43:19;;;;;;;;;;;;;;;13.53;100.00;101961.38;5095948;27;19915;-69
2023/05/13 02:45:44;;;;;;;;;;;;;;;13.49;100.00;101959.13;5096838;28;20395;-69
2023/05/13 02:48:10;;;;;;;;;;;;;;;13.44;100.00;101954.16;5096241;28;20479;-69
2023/05/13 02:50:35;;;;;;;;;;;;;;;13.42;100.00;101956.97;5095411;28;19923;-70
2023/05/13 02:53:00;;;;;;;;;;;;;;;13.40;100.00;101956.25;5094834;28;20293;-69
2023/05/13 02:55:25;;;;;;;;;;;;;;;13.38;100.00;101954.72;5094912;28;19922;-70
2023/05/13 02:57:51;;;;;;;;;;;;;;;13.35;100.00;101955.81;5095892;28;19916;-70
2023/05/13 03:00:16;;;;;;;;;;;;;;;13.32;100.00;101953.41;5096338;28;19923;-70
2023/05/13 03:02:41;;;;;;;;;;;;;;;13.31;100.00;101950.84;5097738;28;19916;-70
2023/05/13 03:05:06;;;;;;;;;;;;;;;13.28;100.00;101949.25;5095373;28;19997;-70
2023/05/13 03:07:32;;;;;;;;;;;;;;;13.26;100.00;101948.56;5096305;27;19924;-70
2023/05/13 03:09:57;;;;;;;;;;;;;;;13.22;100.00;101941.78;5096087;28;20018;-70
2023/05/13 03:12:22;;;;;;;;;;;;;;;13.20;100.00;101949.06;5095583;28;19912;-70
2023/05/13 03:14:47;;;;;;;;;;;;;;;13.16;100.00;101951.16;5095421;28;20284;-70
2023/05/13 03:17:12;;;;;;;;;;;;;;;13.11;100.00;101944.50;5096740;28;20327;-69
2023/05/13 03:19:38;;;;;;;;;;;;;;;13.07;100.00;101954.63;5095234;28;19920;-69
2023/05/13 03:22:04;;;;;;;;;;;;;;;13.02;100.00;101952.34;5094814;27;20340;-69
2023/05/13 03:24:29;;;;;;;;;;;;;;;12.99;100.00;101959.78;5095744;28;19952;-69
2023/05/13 03:26:55;;;;;;;;;;;;;;;12.96;100.00;101963.59;5096812;28;19919;-69
2023/05/13 03:29:20;;;;;;;;;;;;;;;12.94;100.00;101962.00;5093149;28;19927;-69
2023/05/13 03:31:45;;;;;;;;;;;;;;;12.91;100.00;101959.63;5095626;28;19942;-69
2023/05/13 03:34:10;;;;;;;;;;;;;;;12.88;100.00;101962.56;5095898;28;19951;-69
2023/05/13 03:36:36;;;;;;;;;;;;;;;12.83;100.00;101966.47;5101300;27;20342;-69
2023/05/13 03:39:01;;;;;;;;;;;;;;;12.81;100.00;101964.91;5103559;28;20019;-69
2023/05/13 03:41:27;;;;;;;;;;;;;;;12.77;100.00;101966.16;5099802;28;20025;-70
2023/05/13 03:43:52;;;;;;;;;;;;;;;12.71;100.00;101972.00;5101410;28;19922;-69
2023/05/13 03:46:17;;;;;;;;;;;;;;;12.66;100.00;101969.72;5095936;27;19974;-69
2023/05/13 03:48:43;;;;;;;;;;;;;;;12.63;100.00;101967.31;5100710;27;19912;-69
2023/05/13 03:51:08;;;;;;;;;;;;;;;12.59;100.00;101969.38;5105532;28;19969;-69
2023/05/13 03:53:33;;;;;;;;;;;;;;;12.56;100.00;101974.16;5102493;28;19912;-70
2023/05/13 03:55:58;;;;;;;;;;;;;;;12.53;100.00;101977.06;5099798;28;19926;-70
2023/05/13 03:58:23;;;;;;;;;;;;;;;12.49;100.00;101973.81;5101663;28;19911;-70
2023/05/13 04:00:49;;;;;;;;;;;;;;;12.44;100.00;101976.84;5105397;28;20342;-70
2023/05/13 04:03:18;;;;;;;;;;;;;;;12.41;100.00;101973.56;5102371;27;19911;-68
2023/05/13 04:05:45;;;;;;;;;;;;;;;12.37;100.00;101967.63;5101561;28;19923;-67
2023/05/13 04:08:10;;;;;;;;;;;;;;;12.34;100.00;101967.91;5103496;28;20436;-67
2023/05/13 04:10:35;;;;;;;;;;;;;;;12.31;100.00;101973.50;5095715;28;20011;-67
2023/05/13 04:13:00;;;;;;;;;;;;;;;12.29;100.00;101972.78;5105375;28;19911;-67
2023/05/13 04:15:25;;;;;;;;;;;;;;;12.27;100.00;101974.72;5097761;28;20265;-68
2023/05/13 04:17:51;;;;;;;;;;;;;;;12.26;100.00;101973.88;5100747;27;19919;-68
2023/05/13 04:20:16;;;;;;;;;;;;;;;12.25;100.00;101972.19;5102199;28;19958;-68
2023/05/13 04:22:42;;;;;;;;;;;;;;;12.25;100.00;101979.34;5103862;28;19921;-67
2023/05/13 04:25:07;;;;;;;;;;;;;;;12.25;100.00;101971.31;5100958;27;20339;-67
2023/05/13 04:27:32;;;;;;;;;;;;;;;12.25;100.00;101977.53;5098957;28;19916;-67
2023/05/13 04:29:58;;;;;;;;;;;;;;;12.25;100.00;101969.50;5105870;28;20331;-68
2023/05/13 04:32:23;;;;;;;;;;;;;;;12.24;100.00;101977.66;5102641;28;19950;-67
2023/05/13 04:34:48;;;;;;;;;;;;;;;12.20;100.00;101978.88;5102940;27;19958;-67
2023/05/13 04:37:13;;;;;;;;;;;;;;;12.20;100.00;101985.09;5101042;28;20030;-67
2023/05/13 04:39:38;;;;;;;;;;;;;;;12.20;100.00;101984.22;5100578;28;19920;-67
2023/05/13 04:42:04;;;;;;;;;;;;;;;12.20;100.00;101981.53;5102219;28;19965;-67
2023/05/13 04:44:31;;;;;;;;;;;;;;;12.21;100.00;101984.09;5104570;28;19911;-67
2023/05/13 04:46:56;;;;;;;;;;;;;;;12.22;100.00;101988.47;5101615;28;20024;-67
2023/05/13 04:49:21;;;;;;;;;;;;;;;12.23;100.00;101992.84;5096242;28;19916;-67
2023/05/13 04:51:46;;;;;;;;;;;;;;;12.24;100.00;101991.03;5100537;28;20274;-67
2023/05/13 04:54:11;;;;;;;;;;;;;;;12.25;100.00;101990.91;5101856;28;19915;-67
2023/05/13 04:56:36;;;;;;;;;;;;;;;12.27;100.00;101994.31;5095465;28;19999;-67
2023/05/13 04:59:02;;;;;;;;;;;;;;;12.29;100.00;101995.03;5099305;27;19943;-67
2023/05/13 05:01:27;;;;;;;;;;;;;;;12.32;100.00;101996.59;5093646;28;19923;-67
2023/05/13 05:03:52;;;;;;;;;;;;;;;12.34;100.00;102005.38;5088491;28;20553;-67
2023/05/13 05:06:17;;;;;;;;;;;;;;;12.35;100.00;102000.84;5102002;28;19968;-68
2023/05/13 05:08:42;;;;;;;;;;;;;;;12.38;100.00;102001.44;5096913;28;19912;-67
2023/05/13 05:11:08;;;;;;;;;;;;;;;12.40;100.00;101999.50;5095519;28;19915;-67
2023/05/13 05:13:34;;;;;;;;;;;;;;;12.41;100.00;102008.34;5095504;28;19915;-67
2023/05/13 05:15:59;;;;;;;;;;;;;;;12.43;100.00;102003.72;5099537;28;20153;-67
2023/05/13 05:18:24;;;;;;;;;;;;;;;12.47;100.00;102013.22;5097769;28;20025;-67
2023/05/13 05:20:50;;;;;;;;;;;;;;;12.49;100.00;102017.47;5095444;28;21879;-68
2023/05/13 05:23:15;;;;;;;;;;;;;;;12.53;100.00;102012.69;5100999;28;19911;-67
2023/05/13 05:25:40;;;;;;;;;;;;;;;12.58;100.00;102015.84;5102006;28;19919;-67
2023/05/13 05:28:05;;;;;;;;;;;;;;;12.62;100.00;102014.63;5098808;28;19915;-67
2023/05/13 05:30:38;;;;;;;;;;;;;;;12.65;100.00;102014.34;5099662;28;19919;-68
2023/05/13 05:33:03;;;;;;;;;;;;;;;12.70;100.00;102022.03;5098187;28;20416;-67
2023/05/13 05:35:28;;;;;;;;;;;;;;;12.72;100.00;102016.53;5098293;28;20035;-67
2023/05/13 05:37:53;;;;;;;;;;;;;;;12.71;100.00;102028.22;5093737;28;19915;-68
2023/05/13 05:40:20;;;;;;;;;;;;;;;12.68;100.00;102023.97;5098118;28;19970;-68
2023/05/13 05:42:45;;;;;;;;;;;;;;;12.68;100.00;102030.16;5098009;28;20052;-67
2023/05/13 05:45:10;;;;;;;;;;;;;;;12.68;100.00;102030.16;5098997;28;20409;-67
2023/05/13 05:47:35;;;;;;;;;;;;;;;12.70;100.00;102029.22;5094953;28;19911;-67
2023/05/13 05:50:00;;;;;;;;;;;;;;;12.72;100.00;102037.97;5092612;28;19920;-67
2023/05/13 05:52:26;;;;;;;;;;;;;;;12.74;100.00;102039.50;5093768;28;19922;-67
2023/05/13 05:54:51;;;;;;;;;;;;;;;12.77;100.00;102041.94;5094714;28;19986;-68
2023/05/13 05:57:16;;;;;;;;;;;;;;;12.84;100.00;102036.94;5096629;28;19916;-67
2023/05/13 05:59:41;;;;;;;;;;;;;;;12.92;100.00;102041.63;5098681;28;19920;-67
2023/05/13 06:02:06;;;;;;;;;;;;;;;12.99;100.00;102038.34;5096366;28;20289;-67
2023/05/13 06:04:31;;;;;;;;;;;;;;;13.01;100.00;102032.84;5100181;28;20285;-68
2023/05/13 06:06:57;;;;;;;;;;;;;;;13.04;100.00;102033.44;5095470;28;20512;-67
2023/05/13 06:09:22;;;;;;;;;;;;;;;13.08;100.00;102030.47;5100508;28;19915;-68
2023/05/13 06:11:47;;;;;;;;;;;;;;;13.10;100.00;102037.41;5092817;28;19999;-67
2023/05/13 06:14:12;;;;;;;;;;;;;;;13.15;100.00;102043.25;5100421;28;19922;-68
2023/05/13 06:16:38;;;;;;;;;;;;;;;13.22;100.00;102038.22;5094355;28;19916;-68
2023/05/13 06:19:03;;;;;;;;;;;;;;;13.28;100.00;102051.06;5095783;28;19920;-68
2023/05/13 06:21:28;;;;;;;;;;;;;;;13.41;100.00;102043.72;5094610;28;19916;-68
2023/05/13 06:23:53;;;;;;;;;;;;;;;13.59;100.00;102043.97;5097168;28;19950;-67
2023/05/13 06:26:18;;;;;;;;;;;;;;;13.72;100.00;102043.75;5088533;28;19920;-67
2023/05/13 06:28:44;;;;;;;;;;;;;;;13.82;100.00;102042.97;5097586;28;19938;-67
2023/05/13 06:31:09;;;;;;;;;;;;;;;14.03;100.00;102050.94;5106600;28;19912;-67
2023/05/13 06:33:35;;;;;;;;;;;;;;;14.30;100.00;102053.00;5099962;28;19911;-67
2023/05/13 06:36:00;;;;;;;;;;;;;;;14.46;100.00;102053.31;5101155;28;19919;-68
2023/05/13 06:38:25;;;;;;;;;;;;;;;14.57;100.00;102050.50;5105807;28;20722;-68
2023/05/13 06:40:50;;;;;;;;;;;;;;;14.61;100.00;102052.94;5098838;28;20010;-68
2023/05/13 06:43:16;;;;;;;;;;;;;;;14.63;100.00;102051.81;5103005;27;19911;-67
2023/05/13 06:45:42;;;;;;;;;;;;;;;14.68;100.00;102057.63;5099116;27;19922;-67
2023/05/13 06:48:07;;;;;;;;;;;;;;;14.90;100.00;102055.63;5099309;28;20401;-67
2023/05/13 06:50:32;;;;;;;;;;;;;;;15.22;100.00;102055.34;5101517;28;19912;-68
2023/05/13 06:52:58;;;;;;;;;;;;;;;15.60;100.00;102056.28;5099462;28;19915;-68
2023/05/13 06:55:23;;;;;;;;;;;;;;;15.99;100.00;102050.78;5101038;28;19915;-68
2023/05/13 06:57:48;;;;;;;;;;;;;;;16.34;100.00;102056.38;5098842;27;19926;-68
2023/05/13 07:00:14;;;;;;;;;;;;;;;16.44;100.00;102049.09;5095939;27;19955;-68
2023/05/13 07:02:40;;;;;;;;;;;;;;;16.39;100.00;102052.25;5095330;28;19916;-68
2023/05/13 07:05:05;;;;;;;;;;;;;;;16.27;100.00;102066.94;5101273;28;19923;-68
2023/05/13 07:07:30;;;;;;;;;;;;;;;16.21;100.00;102062.97;5101799;28;19998;-68
2023/05/13 07:09:56;;;;;;;;;;;;;;;16.34;100.00;102068.03;5100777;28;20750;-67
2023/05/13 07:12:21;;;;;;;;;;;;;;;16.48;100.00;102061.28;5093722;28;20407;-68
2023/05/13 07:14:46;;;;;;;;;;;;;;;16.50;100.00;102055.75;5101685;28;19988;-68
2023/05/13 07:17:11;;;;;;;;;;;;;;;16.49;100.00;102056.72;5102796;28;19921;-67
2023/05/13 07:19:36;;;;;;;;;;;;;;;16.46;100.00;102060.56;5104697;28;19923;-67
2023/05/13 07:22:02;;;;;;;;;;;;;;;16.47;100.00;102069.50;5104674;28;19926;-68
2023/05/13 07:24:27;;;;;;;;;;;;;;;16.41;100.00;102071.81;5102758;28;19993;-67
2023/05/13 07:26:52;;;;;;;;;;;;;;;16.43;100.00;102063.56;5098531;27;19908;-68
2023/05/13 07:29:17;;;;;;;;;;;;;;;16.61;100.00;102056.34;5103115;28;20961;-68
2023/05/13 07:31:42;;;;;;;;;;;;;;;16.90;100.00;102044.53;5102598;28;19908;-68
2023/05/13 07:34:08;;;;;;;;;;;;;;;17.06;100.00;102048.34;5093255;28;19920;-68
2023/05/13 07:36:33;;;;;;;;;;;;;;;17.18;100.00;102056.06;5096870;28;19923;-67
2023/05/13 07:38:58;;;;;;;;;;;;;;;17.39;100.00;102049.44;5097736;28;19935;-68
2023/05/13 07:41:23;;;;;;;;;;;;;;;17.73;100.00;102054.06;5099639;28;20335;-68
2023/05/13 07:43:48;;;;;;;;;;;;;;;18.13;100.00;102058.00;5096672;28;19995;-68
2023/05/13 07:46:14;;;;;;;;;;;;;;;18.51;100.00;102056.59;5094857;28;19918;-68
2023/05/13 07:48:39;;;;;;;;;;;;;;;18.75;100.00;102054.94;5100767;28;19912;-68
2023/05/13 07:51:05;;;;;;;;;;;;;;;19.06;100.00;102062.44;5101194;28;20377;-68
2023/05/13 07:53:30;;;;;;;;;;;;;;;19.38;100.00;102061.56;5105324;28;19957;-68
2023/05/13 07:55:55;;;;;;;;;;;;;;;19.72;100.00;102067.75;5096440;28;19979;-67
2023/05/13 07:58:20;;;;;;;;;;;;;;;20.04;100.00;102066.84;5098143;28;19980;-68
2023/05/13 08:00:46;;;;;;;;;;;;;;;20.26;100.00;102059.78;5103850;28;19916;-68
2023/05/13 08:03:11;;;;;;;;;;;;;;;20.31;100.00;102054.69;5101013;28;19912;-69
2023/05/13 08:05:36;;;;;;;;;;;;;;;20.38;100.00;102058.38;5099711;28;20434;-69
2023/05/13 08:10:34;;;;;;;11.85;8.35;;;;;;;20.34;100.00;102065.19;5096167;27;20421;-68
2023/05/13 08:12:59;;;;;;;12.88;7.45;;;;;;;20.44;100.00;102056.84;5073468;28;20036;-70
2023/05/13 08:15:26;;;;;;;8.05;7.25;;;;;;;20.80;100.00;102059.00;5079836;28;20036;-69
2023/05/13 08:17:52;;;;;;;8.00;7.30;;;;;;;21.18;100.00;102061.75;5076188;28;20020;-68
2023/05/13 08:20:18;;;;;;;8.40;7.28;;;;;;;21.29;100.00;102065.88;5080993;28;20362;-69
2023/05/13 08:22:43;;;;;;;9.38;7.47;;;;;;;21.63;100.00;102056.41;5084562;28;20031;-68
2023/05/13 08:25:10;;;;;;;10.55;8.10;;;;;;;21.79;100.00;102058.09;5094396;28;20020;-69
2023/05/13 08:27:35;;;;;;;11.85;7.13;;;;;;;21.97;100.00;102060.44;5094946;28;20035;-69
2023/05/13 08:30:01;;;;;;;9.27;7.00;;;;;;;22.17;100.00;102057.97;5081978;28;20098;-69
2023/05/13 08:32:26;;;;;;;8.68;6.85;;;;;;;22.16;100.00;102062.56;5082473;28;20031;-69
2023/05/13 08:34:52;;;;;;;8.35;6.68;;;;;;;21.92;100.00;102060.16;5081519;28;20501;-69
2023/05/13 08:37:17;;;;;;;8.65;7.32;;;;;;;22.18;100.00;102055.06;5078014;28;20024;-70
2023/05/13 08:39:42;;;;;;;8.13;6.65;;;;;;;22.28;100.00;102061.09;5073343;28;20381;-68
2023/05/13 08:42:10;;;;;;;8.15;6.68;;;;;;;22.68;100.00;102048.97;5076596;28;20577;-68
2023/05/13 08:44:38;;;;;;;11.25;6.78;;;;;;;22.66;100.00;102055.41;5076023;28;20456;-68
2023/05/13 08:47:18;;;;;;;9.73;6.95;;;;;;;23.01;100.00;102060.16;5075109;28;20143;-67
2023/05/13 08:49:45;;;;;;;8.98;7.00;;;;;;;23.15;100.00;102053.81;5067344;28;20021;-68
2023/05/13 08:52:10;;;;;;;9.63;7.20;;;;;;;23.13;100.00;102055.06;5074752;28;20511;-68
2023/05/13 08:54:37;;;;;;;10.05;7.13;;;;;;;23.32;100.00;102056.25;5080385;28;20032;-67
2023/05/13 08:57:03;;;;;;;14.52;7.65;;;;;;;23.88;100.00;102060.84;5076944;28;20055;-68
2023/05/13 08:59:28;;;;;;;8.18;7.05;;;;;;;23.71;100.00;102058.41;5075601;28;20033;-68
2023/05/13 09:01:55;;;;;;;10.88;7.82;;;;;;;23.67;100.00;102051.66;5074921;28;20032;-67
2023/05/13 09:04:20;;;;;;;10.18;8.18;;;;;;;23.57;100.00;102048.47;5082799;28;20086;-68
2023/05/13 09:06:47;;;;;;;10.45;8.32;;;;;;;23.81;100.00;102049.91;5067091;28;20056;-68
2023/05/13 09:09:12;;;;;;;9.82;6.97;;;;;;;23.99;100.00;102048.53;5071531;28;20048;-68
2023/05/13 09:11:39;;;;;;;9.13;6.82;;;;;;;23.84;100.00;102052.19;5066856;28;20032;-67
2023/05/13 09:14:06;;;;;;;8.38;7.13;;;;;;;24.00;100.00;102051.03;5079010;28;20033;-68
2023/05/13 09:16:31;;;;;;;8.00;7.13;;;;;;;24.26;100.00;102050.28;5075402;28;20165;-68
2023/05/13 09:18:58;;;;;;;10.40;7.20;;;;;;;24.27;100.00;102053.88;5079069;28;20111;-67
2023/05/13 09:21:30;;;;;;;9.85;6.78;;;;;;;24.40;100.00;102045.72;5059262;28;20028;-68
2023/05/13 09:24:09;;;;;;;8.60;6.95;;;;;;;24.38;100.00;102045.09;5061414;28;20040;-68
2023/05/13 09:26:35;;;;;;;9.02;7.13;;;;;;;24.69;100.00;102046.47;5066392;28;20028;-68
2023/05/13 09:29:27;;;;;;;12.45;7.20;;;;;;;24.79;100.00;102044.16;5069631;28;20504;-68
2023/05/13 09:31:59;;;;;;;7.55;6.88;;;;;;;24.54;100.00;102035.72;5054942;28;20103;-68
2023/05/13 09:34:28;;;;;;;9.68;7.18;;;;;;;24.63;100.00;102039.94;5066241;28;20051;-68
2023/05/13 09:36:59;;;;;;;8.65;7.03;;;;;;;25.15;100.00;102034.72;5069890;28;20064;-68
2023/05/13 09:39:25;;;;;;;9.10;6.32;;;;;;;25.51;100.00;102038.91;5065482;28;20052;-68
2023/05/13 09:41:51;;;;;;;13.75;7.65;;;;;;;25.47;100.00;102035.78;5066173;28;20032;-68
2023/05/13 09:44:16;;;;;;;8.70;7.20;;;;;;;26.04;100.00;102032.47;5061867;28;20496;-68
2023/05/13 09:46:42;;;;;;;8.63;7.57;;;;;;;25.93;100.00;102035.81;5066166;28;20055;-68
2023/05/13 09:49:09;;;;;;;7.10;6.38;;;;;;;26.34;100.00;102026.44;5067428;28;20691;-69
2023/05/13 09:51:34;;;;;;;10.48;6.60;;;;;;;26.44;100.00;102021.31;5074826;28;20435;-68
2023/05/13 09:54:05;;;;;;;7.07;6.18;;;;;;;26.51;100.00;102030.31;5069729;28;20025;-68
2023/05/13 09:56:32;;;;;;;7.65;6.40;;;;;;;26.91;100.00;102024.59;5067122;28;20077;-68
2023/05/13 09:58:57;;;;;;;10.32;7.32;;;;;;;26.54;100.00;102020.81;5060288;28;21867;-69
2023/05/13 10:01:25;;;;;;;12.85;7.32;;;;;;;26.86;100.00;102024.41;5057264;28;20127;-68
2023/05/13 10:03:52;;;;;;;8.48;6.30;;;;;;;26.60;100.00;102022.69;5063078;28;20408;-69
2023/05/13 10:06:22;;;;;;;9.15;7.32;;;;;;;26.71;100.00;102021.16;5052324;28;20017;-68
2023/05/13 10:08:49;;;;;;;8.30;6.25;;;;;;;27.29;100.00;102014.59;5065568;28;20083;-69
2023/05/13 10:11:15;;;;;;;10.68;6.47;;;;;;;27.12;100.00;102011.53;5050698;28;20055;-68
2023/05/13 10:13:45;;;;;;;10.55;6.70;;;;;;;27.30;100.00;102017.09;5050630;28;20033;-69
2023/05/13 10:16:10;;;;;;;7.85;6.40;;;;;;;27.38;100.00;102010.47;5062914;28;20029;-69
2023/05/13 10:18:36;;;;;;;9.35;6.07;;;;;;;27.54;100.00;102015.38;5064028;28;20120;-69
2023/05/13 10:21:02;;;;;;;9.73;5.45;;;;;;;27.89;100.00;102012.00;5067245;28;20582;-69
2023/05/13 10:23:28;;;;;;;7.40;6.10;;;;;;;27.46;100.00;102006.63;5077844;28;20035;-69
2023/05/13 10:25:54;;;;;;;7.90;6.10;;;;;;;28.11;100.00;102011.53;5062245;28;20024;-69
2023/05/13 10:28:20;;;;;;;6.22;5.63;;;;;;;28.13;100.00;102006.66;5063123;28;20028;-69
2023/05/13 10:30:48;;;;;;;8.45;4.80;;;;;;;28.83;95.86;102007.97;5062868;28;20439;-68
2023/05/13 10:33:15;;;;;;;7.07;5.30;;;;;;;28.57;94.31;102010.06;5066472;28;20025;-69
2023/05/13 10:35:45;;;;;;;5.90;5.03;;;;;;;28.45;94.95;102001.78;5071530;28;20031;-68
2023/05/13 10:38:29;;;;;;;9.90;4.90;;;;;;;28.73;96.47;102007.69;5056008;28;20079;-68
2023/05/13 10:41:10;;;;;;;8.00;4.78;;;;;;;28.88;92.59;101999.84;5062770;28;20044;-68
2023/05/13 10:43:36;;;;;;;9.15;4.80;;;;;;;29.08;91.81;102004.16;5060413;28;20116;-68
2023/05/13 10:46:05;;;;;;;7.80;4.63;;;;;;;29.37;92.76;102002.38;5058193;28;20458;-69
2023/05/13 10:48:59;;;;;;;5.57;4.95;;;;;;;29.52;92.39;101988.97;5049918;28;20032;-68
2023/05/13 10:51:25;;;;;;;5.15;4.47;;;;;;;29.22;86.33;101992.69;5052110;28;20028;-69
2023/05/13 10:53:53;;;;;;;4.82;4.03;;;;;;;29.38;86.95;101998.53;5060716;28;20036;-69
2023/05/13 10:56:20;;;;;;;9.68;4.30;;;;;;;29.29;79.70;101989.00;5053660;28;20036;-69
2023/05/13 10:59:00;;;;;;;5.13;4.15;;;;;;;30.20;83.18;101993.91;5055467;28;20028;-69
2023/05/13 11:01:29;;;;;;;6.97;3.75;;;;;;;30.35;79.48;101994.25;5055670;28;20447;-69
2023/05/13 11:04:03;;;;;;;6.25;4.00;;;;;;;30.11;79.38;101994.31;5064420;28;20043;-69
2023/05/13 11:06:33;;;;;;;5.28;3.80;;;;;;;30.07;76.62;101995.06;5066883;28;20398;-69
2023/05/13 11:08:59;;;;;;;10.00;3.75;;;;;;;30.13;75.66;101983.88;5051599;28;20097;-69
2023/05/13 11:11:35;;;;;;;6.55;3.67;;;;;;;30.52;73.60;101980.47;5058434;28;20032;-68
2023/05/13 11:14:07;;;;;;;7.03;3.88;;;;;;;30.32;74.62;101980.94;5060566;28;20029;-69
2023/05/13 11:16:33;;;;;;;6.80;3.50;;;;;;;29.61;70.66;101975.69;5052867;28;20027;-69
2023/05/13 11:19:01;;;;;;;6.43;3.20;;;;;;;29.51;67.88;101968.06;5052293;28;20052;-69
2023/05/13 11:21:40;;;;;;;6.65;3.00;;;;;;;30.14;70.76;101976.50;5059102;28;20032;-69
2023/05/13 11:24:06;;;;;;;5.22;3.25;;;;;;;30.27;65.25;101967.09;5062532;28;20128;-68
2023/05/13 11:27:10;;;;;;;3.30;2.88;;;;;;;30.48;69.01;101960.88;5067852;28;20464;-68
2023/05/13 11:29:37;;;;;;;5.38;2.65;;;;;;;30.31;61.79;101958.09;5065824;28;20036;-69
2023/05/13 11:32:04;;;;;;;5.72;2.65;;;;;;;30.47;59.46;101961.13;5062207;28;20020;-69
2023/05/13 11:34:30;;;;;;;6.45;2.70;;;;;;;30.72;58.61;101958.78;5054770;28;20040;-70
2023/05/13 11:37:02;;;;;;;4.22;2.67;;;;;;;30.90;59.88;101954.09;5058708;28;20035;-70
2023/05/13 11:39:27;;;;;;;8.52;2.80;;;;;;;30.73;57.64;101946.72;5054305;28;20041;-70
2023/05/13 11:41:56;;;;;;;7.18;3.10;;;;;;;31.01;55.28;101953.19;5059525;28;20039;-70
2023/05/13 11:44:23;;;;;;;3.78;2.50;;;;;;;31.38;52.89;101958.13;5060716;28;20504;-70
2023/05/13 11:46:55;;;;;;;4.72;2.80;;;;;;;31.40;53.88;101950.44;5056473;28;20028;-71
2023/05/13 11:49:40;;;;;;;6.00;3.28;;;;;;;31.24;49.62;101945.78;5048413;28;20359;-70
2023/05/13 11:52:13;;;;;;;3.70;2.92;;;;;;;30.44;49.40;101948.72;5057669;28;20028;-70
2023/05/13 11:54:52;;;;;;;5.78;2.35;;;;;;;30.26;46.29;101941.50;5054797;28;20108;-70
2023/05/13 11:57:22;;;;;;;3.88;2.60;;;;;;;29.83;43.92;101940.16;5062557;28;20393;-70
2023/05/13 11:59:59;;;;;;;5.53;2.30;;;;;;;30.17;43.77;101932.81;5053918;28;20413;-70
2023/05/13 12:02:30;;;;;;;5.00;2.42;;;;;;;30.04;44.54;101935.88;5056012;28;20429;-70
2023/05/13 12:04:59;;;;;;;2.90;2.00;;;;;;;29.82;43.67;101937.63;5055845;28;20104;-70